createdAt,value
2023-06-12T00:03:36.650Z,99.90
2023-06-12T00:06:04.020Z,99.90
2023-06-12T00:08:34.705Z,99.90
2023-06-12T00:11:01.842Z,99.90
2023-06-12T00:13:28.865Z,99.90
2023-06-12T00:15:55.768Z,99.90
2023-06-12T00:18:22.513Z,99.90
2023-06-12T00:20:49.304Z,99.90
2023-06-12T00:23:16.158Z,99.90
2023-06-12T00:25:42.991Z,99.90
2023-06-12T00:28:09.819Z,99.90
2023-06-12T00:30:36.617Z,99.90
2023-06-12T00:33:03.643Z,99.90
2023-06-12T00:35:30.549Z,99.90
2023-06-12T00:37:57.305Z,99.90
2023-06-12T00:40:24.118Z,99.90
2023-06-12T00:42:52.860Z,99.90
2023-06-12T00:45:24.697Z,99.90
2023-06-12T00:48:00.874Z,99.90
2023-06-12T00:50:28.784Z,99.90
2023-06-12T00:53:02.019Z,99.90
2023-06-12T00:55:35.058Z,99.90
2023-06-12T00:58:03.109Z,99.90
2023-06-12T01:00:30.788Z,99.90
2023-06-12T01:03:05.899Z,99.90
2023-06-12T01:05:43.353Z,99.90
2023-06-12T01:08:28.977Z,99.90
2023-06-12T01:11:01.282Z,99.90
2023-06-12T01:13:28.551Z,99.90
2023-06-12T01:15:55.515Z,99.90
2023-06-12T01:18:22.987Z,99.90
2023-06-12T01:20:52.169Z,99.90
2023-06-12T01:23:47.665Z,99.90
2023-06-12T01:26:37.504Z,99.90
2023-06-12T01:29:51.613Z,99.90
2023-06-12T01:32:18.742Z,99.90
2023-06-12T01:35:00.851Z,99.90
2023-06-12T01:37:32.466Z,99.90
2023-06-12T01:40:03.248Z,99.90
2023-06-12T01:42:31.677Z,99.90
2023-06-12T01:44:58.441Z,99.90
2023-06-12T01:47:25.539Z,99.90
2023-06-12T01:49:52.688Z,99.90
2023-06-12T01:52:19.923Z,99.90
2023-06-12T01:54:49.559Z,99.90
2023-06-12T01:57:20.515Z,99.90
2023-06-12T01:59:52.631Z,99.90
2023-06-12T02:02:19.476Z,99.90
2023-06-12T02:04:46.358Z,99.90
2023-06-12T02:07:13.922Z,99.90
2023-06-12T02:09:40.992Z,99.90
2023-06-12T02:12:08.782Z,99.90
2023-06-12T02:14:35.587Z,99.90
2023-06-12T02:17:05.419Z,99.90
2023-06-12T02:19:33.938Z,99.90
2023-06-12T02:22:01.403Z,99.90
2023-06-12T02:24:33.281Z,99.90
2023-06-12T02:27:00.467Z,99.90
2023-06-12T02:29:27.647Z,99.90
2023-06-12T02:31:54.600Z,99.90
2023-06-12T02:34:21.497Z,99.90
2023-06-12T02:36:50.681Z,99.90
2023-06-12T02:39:20.108Z,99.90
2023-06-12T02:41:48.987Z,99.90
2023-06-12T02:44:16.378Z,99.90
2023-06-12T02:47:00.847Z,99.90
2023-06-12T02:49:31.009Z,99.90
2023-06-12T02:51:58.422Z,99.90
2023-06-12T02:54:27.719Z,99.90
2023-06-12T02:56:54.510Z,99.90
2023-06-12T02:59:24.344Z,99.90
2023-06-12T03:01:51.310Z,99.90
2023-06-12T03:04:22.748Z,99.90
2023-06-12T03:06:55.005Z,99.90
2023-06-12T03:09:23.281Z,99.90
2023-06-12T03:11:52.871Z,99.90
2023-06-12T03:14:23.044Z,99.90
2023-06-12T03:16:50.339Z,99.90
2023-06-12T03:19:18.172Z,99.90
2023-06-12T03:21:45.491Z,99.90
2023-06-12T03:24:12.693Z,99.90
2023-06-12T03:26:39.835Z,99.90
2023-06-12T03:29:06.826Z,99.90
2023-06-12T03:31:34.031Z,99.90
2023-06-12T03:34:01.041Z,99.90
2023-06-12T03:36:29.709Z,99.90
2023-06-12T03:38:57.067Z,99.90
2023-06-12T03:41:24.260Z,99.90
2023-06-12T03:43:51.149Z,99.90
2023-06-12T03:46:18.144Z,99.90
2023-06-12T03:48:45.182Z,99.90
2023-06-12T03:51:12.246Z,99.90
2023-06-12T03:53:40.291Z,99.90
2023-06-12T03:56:08.365Z,99.90
2023-06-12T03:58:35.791Z,99.90
2023-06-12T04:01:02.706Z,99.90
2023-06-12T04:03:30.293Z,99.90
2023-06-12T04:05:57.158Z,99.90
2023-06-12T04:08:23.983Z,99.90
2023-06-12T04:10:52.549Z,99.90
2023-06-12T04:13:19.368Z,99.90
2023-06-12T04:15:48.310Z,99.90
2023-06-12T04:18:15.563Z,99.90
2023-06-12T04:20:42.707Z,99.90
2023-06-12T04:23:12.788Z,99.90
2023-06-12T04:25:44.123Z,99.90
2023-06-12T04:28:19.190Z,99.90
2023-06-12T04:30:46.820Z,99.90
2023-06-12T04:33:15.890Z,99.90
2023-06-12T04:35:47.054Z,99.90
2023-06-12T04:38:13.940Z,99.90
2023-06-12T04:40:42.529Z,99.90
2023-06-12T04:43:10.824Z,99.90
2023-06-12T04:45:37.943Z,99.90
2023-06-12T04:48:05.369Z,99.90
2023-06-12T04:50:32.929Z,99.90
2023-06-12T04:53:00.465Z,99.90
2023-06-12T04:55:29.710Z,99.90
2023-06-12T04:57:56.791Z,99.90
2023-06-12T05:00:24.017Z,99.90
2023-06-12T05:02:54.210Z,99.90
2023-06-12T05:05:21.227Z,99.90
2023-06-12T05:07:48.510Z,99.90
2023-06-12T05:10:16.579Z,99.90
2023-06-12T05:12:43.758Z,99.90
2023-06-12T05:15:11.022Z,99.90
2023-06-12T05:17:38.751Z,99.90
2023-06-12T05:20:09.875Z,99.90
2023-06-12T05:22:37.467Z,99.90
2023-06-12T05:25:05.269Z,99.90
2023-06-12T05:27:32.477Z,99.90
2023-06-12T05:29:59.573Z,99.90
2023-06-12T05:32:26.547Z,99.90
2023-06-12T05:34:53.496Z,99.90
2023-06-12T05:37:20.302Z,99.90
2023-06-12T05:39:47.203Z,99.90
2023-06-12T05:42:14.051Z,99.90
2023-06-12T05:44:41.732Z,99.90
2023-06-12T05:47:11.047Z,99.90
2023-06-12T05:49:38.339Z,99.90
2023-06-12T05:52:08.875Z,99.90
2023-06-12T05:54:36.143Z,99.90
2023-06-12T05:57:03.813Z,99.90
2023-06-12T05:59:31.814Z,99.90
2023-06-12T06:01:59.246Z,99.90
2023-06-12T06:04:27.119Z,99.90
2023-06-12T06:06:54.697Z,99.90
2023-06-12T06:09:22.055Z,99.90
2023-06-12T06:11:49.032Z,99.90
2023-06-12T06:14:18.050Z,99.90
2023-06-12T06:16:54.411Z,99.90
2023-06-12T06:19:22.416Z,99.90
2023-06-12T06:21:49.214Z,99.90
2023-06-12T06:24:16.466Z,99.90
2023-06-12T06:26:43.675Z,99.90
2023-06-12T06:29:14.318Z,99.90
2023-06-12T06:31:41.756Z,99.90
2023-06-12T06:34:08.792Z,99.90
2023-06-12T06:36:36.518Z,99.90
2023-06-12T06:39:04.617Z,99.90
2023-06-12T06:41:31.427Z,99.90
2023-06-12T06:43:58.236Z,99.90
2023-06-12T06:46:25.028Z,99.90
2023-06-12T06:48:52.020Z,99.90
2023-06-12T06:51:19.900Z,99.90
2023-06-12T06:53:46.963Z,99.90
2023-06-12T06:56:13.914Z,99.90
2023-06-12T06:58:41.993Z,99.90
2023-06-12T07:01:09.471Z,99.90
2023-06-12T07:03:36.339Z,99.90
2023-06-12T07:06:03.597Z,99.90
2023-06-12T07:08:30.455Z,99.90
2023-06-12T07:10:57.496Z,99.90
2023-06-12T07:13:24.307Z,99.90
2023-06-12T07:15:52.827Z,99.90
2023-06-12T07:18:19.938Z,99.90
2023-06-12T07:20:46.690Z,99.90
2023-06-12T07:23:13.610Z,99.90
2023-06-12T07:25:42.125Z,99.90
2023-06-12T07:28:08.990Z,99.90
2023-06-12T07:30:36.020Z,99.90
2023-06-12T07:33:03.340Z,99.90
2023-06-12T07:35:30.231Z,99.90
2023-06-12T07:37:57.050Z,99.90
2023-06-12T07:40:23.913Z,99.90
2023-06-12T07:42:51.438Z,99.90
2023-06-12T07:45:20.829Z,99.90
2023-06-12T07:47:48.707Z,99.90
2023-06-12T07:50:15.619Z,99.90
2023-06-12T07:52:42.584Z,99.90
2023-06-12T07:55:10.055Z,99.90
2023-06-12T07:57:38.028Z,99.90
2023-06-12T08:00:08.762Z,99.90
2023-06-12T08:02:37.268Z,99.90
2023-06-12T08:05:04.561Z,99.90
2023-06-12T08:07:31.775Z,99.90
2023-06-12T08:09:58.897Z,99.90
2023-06-12T08:12:26.017Z,99.90
2023-06-12T08:14:54.653Z,99.90
2023-06-12T08:17:25.059Z,99.90
2023-06-12T08:19:52.005Z,99.90
2023-06-12T08:22:18.818Z,99.90
2023-06-12T08:24:47.319Z,99.90
2023-06-12T08:27:14.331Z,99.90
2023-06-12T08:29:41.966Z,99.90
2023-06-12T08:32:09.033Z,99.90
2023-06-12T08:34:36.795Z,99.90
2023-06-12T08:37:03.812Z,99.90
2023-06-12T08:39:30.656Z,99.90
2023-06-12T08:42:31.953Z,99.90
2023-06-12T08:45:20.150Z,99.90
2023-06-12T08:47:50.877Z,99.90
2023-06-12T08:50:18.415Z,99.90
2023-06-12T08:52:47.602Z,99.90
2023-06-12T08:55:18.092Z,99.90
2023-06-12T08:57:45.243Z,99.90
2023-06-12T09:00:16.425Z,99.90
2023-06-12T09:02:53.400Z,99.90
2023-06-12T09:05:34.478Z,97.80
2023-06-12T09:08:02.848Z,98.50
2023-06-12T09:10:38.729Z,99.90
2023-06-12T09:13:11.375Z,97.80
2023-06-12T09:15:42.763Z,95.00
2023-06-12T09:18:12.057Z,95.00
2023-06-12T09:20:43.536Z,92.20
2023-06-12T09:23:14.042Z,93.40
2023-06-12T09:25:52.321Z,95.10
2023-06-12T09:28:31.447Z,94.90
2023-06-12T09:30:58.570Z,91.50
2023-06-12T09:33:29.039Z,91.00
2023-06-12T09:35:55.830Z,93.00
2023-06-12T09:38:37.754Z,93.70
2023-06-12T09:41:08.349Z,90.90
2023-06-12T09:43:36.192Z,91.60
2023-06-12T09:46:05.394Z,91.20
2023-06-12T09:48:37.305Z,92.50
2023-06-12T09:51:07.439Z,91.30
2023-06-12T09:53:40.893Z,90.70
2023-06-12T09:56:10.683Z,90.60
2023-06-12T09:58:39.597Z,89.40
2023-06-12T10:01:07.904Z,90.10
2023-06-12T10:03:43.928Z,88.90
2023-06-12T10:06:14.624Z,88.70
2023-06-12T10:08:42.335Z,86.60
2023-06-12T10:11:10.594Z,88.30
2023-06-12T10:13:41.521Z,89.20
2023-06-12T10:16:09.297Z,86.00
2023-06-12T10:18:36.555Z,83.30
2023-06-12T10:21:03.943Z,84.10
2023-06-12T10:23:34.526Z,82.40
2023-06-12T10:26:03.221Z,86.80
2023-06-12T10:28:30.373Z,87.20
2023-06-12T10:31:13.012Z,87.40
2023-06-12T10:34:07.911Z,82.00
2023-06-12T10:36:47.767Z,85.50
2023-06-12T10:39:25.386Z,82.50
2023-06-12T10:42:07.865Z,82.50
2023-06-12T10:44:41.257Z,83.70
2023-06-12T10:47:19.530Z,81.30
2023-06-12T10:50:01.771Z,80.90
2023-06-12T10:52:28.710Z,80.90
2023-06-12T10:55:14.642Z,79.70
2023-06-12T10:57:55.457Z,79.50
2023-06-12T11:00:26.142Z,83.30
2023-06-12T11:03:02.817Z,81.10
2023-06-12T11:05:31.701Z,81.20
2023-06-12T11:08:02.151Z,80.40
2023-06-12T11:10:30.431Z,80.90
2023-06-12T11:13:01.079Z,81.30
2023-06-12T11:15:28.419Z,80.00
2023-06-12T11:17:56.043Z,79.40
2023-06-12T11:20:24.299Z,78.80
2023-06-12T11:23:02.348Z,79.60
2023-06-12T11:25:34.588Z,79.70
2023-06-12T11:28:01.596Z,77.20
2023-06-12T11:30:33.114Z,74.10
2023-06-12T11:33:09.495Z,69.30
2023-06-12T11:35:41.722Z,71.20
2023-06-12T11:40:42.590Z,69.40
2023-06-12T11:43:10.132Z,64.50
2023-06-12T11:45:42.935Z,66.30
2023-06-12T11:50:53.399Z,60.90
2023-06-12T11:53:21.695Z,59.10
2023-06-12T11:58:45.368Z,63.10
2023-06-12T12:01:16.065Z,59.00
2023-06-12T12:03:47.476Z,57.40
2023-06-12T12:06:18.593Z,59.30
2023-06-12T12:08:46.346Z,56.40
2023-06-12T12:11:22.267Z,55.80
2023-06-12T12:14:07.341Z,55.00
2023-06-12T12:16:44.259Z,56.30
2023-06-12T12:19:28.600Z,58.70
2023-06-12T12:21:57.684Z,53.10
2023-06-12T12:24:24.621Z,53.00
2023-06-12T12:26:53.435Z,54.50
2023-06-12T12:29:22.108Z,53.30
2023-06-12T12:31:49.240Z,53.10
2023-06-12T12:34:16.145Z,52.00
2023-06-12T12:36:43.425Z,51.20
2023-06-12T12:39:11.123Z,52.30
2023-06-12T12:41:40.396Z,51.40
2023-06-12T12:44:07.314Z,52.30
2023-06-12T12:46:34.222Z,51.30
2023-06-12T12:49:01.068Z,52.70
2023-06-12T12:51:30.504Z,53.80
2023-06-12T12:53:57.378Z,52.40
2023-06-12T12:56:24.343Z,53.70
2023-06-12T12:58:51.340Z,54.20
2023-06-12T13:01:18.271Z,53.20
2023-06-12T13:03:56.421Z,50.50
2023-06-12T13:06:37.235Z,52.20
2023-06-12T13:09:04.167Z,51.90
2023-06-12T13:11:31.379Z,52.60
2023-06-12T13:13:58.360Z,51.20
2023-06-12T13:16:25.178Z,51.80
2023-06-12T13:18:53.895Z,50.70
2023-06-12T13:21:21.890Z,50.30
2023-06-12T13:23:48.737Z,50.50
2023-06-12T13:26:15.823Z,49.80
2023-06-12T13:28:42.609Z,49.20
2023-06-12T13:31:09.419Z,49.70
2023-06-12T13:33:36.460Z,48.00
2023-06-12T13:36:06.727Z,48.90
2023-06-12T13:38:33.586Z,49.60
2023-06-12T13:41:01.730Z,48.30
2023-06-12T13:43:28.836Z,51.80
2023-06-12T13:45:58.903Z,51.10
2023-06-12T13:48:26.717Z,50.20
2023-06-12T13:50:53.625Z,50.90
2023-06-12T13:53:20.417Z,52.40
2023-06-12T13:55:47.475Z,51.80
2023-06-12T13:58:14.846Z,52.70
2023-06-12T14:00:41.627Z,52.20
2023-06-12T14:03:08.550Z,52.40
2023-06-12T14:05:35.746Z,51.00
2023-06-12T14:08:03.726Z,51.20
2023-06-12T14:10:30.555Z,51.80
2023-06-12T14:12:58.632Z,52.70
2023-06-12T14:15:25.404Z,52.10
2023-06-12T14:17:52.677Z,52.90
2023-06-12T14:20:19.627Z,50.10
2023-06-12T14:22:46.857Z,51.00
2023-06-12T14:25:14.471Z,51.10
2023-06-12T14:27:41.522Z,50.70
2023-06-12T14:30:09.008Z,52.00
2023-06-12T14:32:35.806Z,54.50
2023-06-12T14:35:02.636Z,54.30
2023-06-12T14:37:29.584Z,54.20
2023-06-12T14:39:56.753Z,54.40
2023-06-12T14:42:23.662Z,55.10
2023-06-12T14:44:50.493Z,52.30
2023-06-12T14:47:17.386Z,54.30
2023-06-12T14:49:44.205Z,55.60
2023-06-12T14:52:28.119Z,55.50
2023-06-12T14:54:59.170Z,54.60
2023-06-12T14:57:25.973Z,56.30
2023-06-12T14:59:52.802Z,55.90
2023-06-12T15:02:19.740Z,57.70
2023-06-12T15:04:46.601Z,57.40
2023-06-12T15:07:13.452Z,56.50
2023-06-12T15:09:41.876Z,56.90
2023-06-12T15:12:09.295Z,55.60
2023-06-12T15:14:36.605Z,56.80
2023-06-12T15:17:04.594Z,55.80
2023-06-12T15:19:32.503Z,56.30
2023-06-12T15:21:59.345Z,58.80
2023-06-12T15:24:26.572Z,55.50
2023-06-12T15:26:53.619Z,56.80
2023-06-12T15:29:20.839Z,57.40
2023-06-12T15:31:48.032Z,54.00
2023-06-12T15:34:15.022Z,55.90
2023-06-12T15:36:42.136Z,54.60
2023-06-12T15:39:10.647Z,55.00
2023-06-12T15:41:40.927Z,56.30
2023-06-12T15:44:07.986Z,56.60
2023-06-12T15:46:34.881Z,57.70
2023-06-12T15:49:01.693Z,56.10
2023-06-12T15:51:28.923Z,56.10
2023-06-12T15:53:55.933Z,56.90
2023-06-12T15:56:22.979Z,56.80
2023-06-12T15:58:49.998Z,56.50
2023-06-12T16:01:17.150Z,55.10
2023-06-12T16:03:44.186Z,57.10
2023-06-12T16:06:11.999Z,57.70
2023-06-12T16:08:38.976Z,60.00
2023-06-12T16:11:05.856Z,61.10
2023-06-12T16:13:32.888Z,58.90
2023-06-12T16:15:59.987Z,58.10
2023-06-12T16:18:26.795Z,57.50
2023-06-12T16:20:53.643Z,59.00
2023-06-12T16:23:20.569Z,61.00
2023-06-12T16:25:47.389Z,57.40
2023-06-12T16:28:16.000Z,58.30
2023-06-12T16:30:42.858Z,57.90
2023-06-12T16:33:10.053Z,59.10
2023-06-12T16:35:36.866Z,58.70
2023-06-12T16:38:03.704Z,59.70
2023-06-12T16:40:30.554Z,59.10
2023-06-12T16:42:57.985Z,62.40
2023-06-12T16:45:24.906Z,59.30
2023-06-12T16:47:51.871Z,58.00
2023-06-12T16:50:19.217Z,58.80
2023-06-12T16:52:47.319Z,57.60
2023-06-12T16:55:14.398Z,56.70
2023-06-12T16:57:41.584Z,57.60
2023-06-12T17:00:09.518Z,58.00
2023-06-12T17:02:37.087Z,58.50
2023-06-12T17:05:04.559Z,58.50
2023-06-12T17:07:31.477Z,58.30
2023-06-12T17:10:03.135Z,58.00
2023-06-12T17:12:30.185Z,57.40
2023-06-12T17:14:57.001Z,56.50
2023-06-12T17:17:24.842Z,55.80
2023-06-12T17:19:51.788Z,57.30
2023-06-12T17:22:18.657Z,58.70
2023-06-12T17:24:45.460Z,58.30
2023-06-12T17:27:12.590Z,57.10
2023-06-12T17:29:41.266Z,58.90
2023-06-12T17:32:09.015Z,58.20
2023-06-12T17:34:37.257Z,58.20
2023-06-12T17:37:04.288Z,58.20
2023-06-12T17:39:31.112Z,58.40
2023-06-12T17:41:58.212Z,58.90
2023-06-12T17:44:26.144Z,59.10
2023-06-12T17:46:54.099Z,61.10
2023-06-12T17:49:20.899Z,60.10
2023-06-12T17:51:49.421Z,58.00
2023-06-12T17:54:16.372Z,59.30
2023-06-12T17:56:44.326Z,59.50
2023-06-12T17:59:11.140Z,60.00
2023-06-12T18:01:38.007Z,60.10
2023-06-12T18:04:34.130Z,60.50
2023-06-12T18:07:00.930Z,60.70
2023-06-12T18:09:27.745Z,60.70
2023-06-12T18:11:56.567Z,60.40
2023-06-12T18:14:23.642Z,61.40
2023-06-12T18:16:50.939Z,61.00
2023-06-12T18:19:17.857Z,61.20
2023-06-12T18:21:44.780Z,63.00
2023-06-12T18:24:11.692Z,61.90
2023-06-12T18:26:38.563Z,63.20
2023-06-12T18:29:07.203Z,62.90
2023-06-12T18:31:34.139Z,63.20
2023-06-12T18:34:01.011Z,63.20
2023-06-12T18:36:28.095Z,64.20
2023-06-12T18:38:54.976Z,63.80
2023-06-12T18:41:21.982Z,64.00
2023-06-12T18:43:48.815Z,65.30
2023-06-12T18:46:17.119Z,67.50
2023-06-12T18:48:43.932Z,67.00
2023-06-12T18:51:10.824Z,68.50
2023-06-12T18:53:38.052Z,70.40
2023-06-12T18:56:05.037Z,72.10
2023-06-12T18:58:31.906Z,73.50
2023-06-12T19:00:58.840Z,74.90
2023-06-12T19:03:25.921Z,75.70
2023-06-12T19:05:52.776Z,77.20
2023-06-12T19:08:21.034Z,78.50
2023-06-12T19:10:48.000Z,79.00
2023-06-12T19:13:14.814Z,79.10
2023-06-12T19:15:42.672Z,79.90
2023-06-12T19:18:09.510Z,80.00
2023-06-12T19:20:36.371Z,79.90
2023-06-12T19:23:04.686Z,80.50
2023-06-12T19:25:31.553Z,80.40
2023-06-12T19:27:59.736Z,81.20
2023-06-12T19:30:26.954Z,81.80
2023-06-12T19:32:56.957Z,82.40
2023-06-12T19:35:23.853Z,83.00
2023-06-12T19:37:50.684Z,83.30
2023-06-12T19:40:17.790Z,84.50
2023-06-12T19:42:44.767Z,84.90
2023-06-12T19:45:13.508Z,87.00
2023-06-12T19:47:41.452Z,86.90
2023-06-12T19:50:08.875Z,87.20
2023-06-12T19:52:37.381Z,87.50
2023-06-12T19:55:04.364Z,87.70
2023-06-12T19:57:31.173Z,88.80
2023-06-12T19:59:57.967Z,88.60
2023-06-12T20:02:24.873Z,88.60
2023-06-12T20:04:51.733Z,88.70
2023-06-12T20:07:19.026Z,89.70
2023-06-12T20:09:45.917Z,90.00
2023-06-12T20:12:12.802Z,90.20
2023-06-12T20:14:39.654Z,90.10
2023-06-12T20:17:06.516Z,90.10
2023-06-12T20:19:33.359Z,90.10
2023-06-12T20:22:00.209Z,90.50
2023-06-12T20:24:30.954Z,90.80
2023-06-12T20:26:58.327Z,91.10
2023-06-12T20:29:25.117Z,91.30
2023-06-12T20:31:52.046Z,91.50
2023-06-12T20:34:21.249Z,91.70
2023-06-12T20:36:48.780Z,91.80
2023-06-12T20:39:15.709Z,91.90
2023-06-12T20:41:45.622Z,91.60
2023-06-12T20:44:12.457Z,91.90
2023-06-12T20:46:39.752Z,92.40
2023-06-12T20:49:06.814Z,92.50
2023-06-12T20:51:34.193Z,92.70
2023-06-12T20:54:01.826Z,92.70
2023-06-12T20:56:29.891Z,93.10
2023-06-12T20:58:56.708Z,93.30
2023-06-12T21:01:24.951Z,93.50
2023-06-12T21:03:53.503Z,93.50
2023-06-12T21:06:20.737Z,93.70
2023-06-12T21:08:58.482Z,93.90
2023-06-12T21:11:36.869Z,94.20
2023-06-12T21:14:08.761Z,94.30
2023-06-12T21:16:37.098Z,94.50
2023-06-12T21:19:08.140Z,94.70
2023-06-12T21:21:35.197Z,94.90
2023-06-12T21:24:02.585Z,95.40
2023-06-12T21:26:30.760Z,95.40
2023-06-12T21:28:57.837Z,95.40
2023-06-12T21:31:27.908Z,95.60
2023-06-12T21:33:55.043Z,95.90
2023-06-12T21:36:23.110Z,96.10
2023-06-12T21:38:51.205Z,96.30
2023-06-12T21:41:19.575Z,96.90
2023-06-12T21:43:46.431Z,97.00
2023-06-12T21:46:13.336Z,97.30
2023-06-12T21:48:40.470Z,97.70
2023-06-12T21:51:07.305Z,98.00
2023-06-12T21:53:35.416Z,98.50
2023-06-12T21:56:02.846Z,98.60
2023-06-12T21:58:31.639Z,98.90
2023-06-12T22:00:59.996Z,99.10
2023-06-12T22:03:28.701Z,99.20
2023-06-12T22:05:57.846Z,99.60
2023-06-12T22:08:25.831Z,99.90
2023-06-12T22:10:52.835Z,99.90
2023-06-12T22:13:20.235Z,99.90
2023-06-12T22:15:48.888Z,99.90
2023-06-12T22:18:16.327Z,99.90
2023-06-12T22:20:43.547Z,99.90
2023-06-12T22:23:12.706Z,99.90
2023-06-12T22:25:40.768Z,99.90
2023-06-12T22:28:08.909Z,99.90
2023-06-12T22:30:44.159Z,99.90
2023-06-12T22:33:18.980Z,99.90
2023-06-12T22:35:46.418Z,99.90
2023-06-12T22:38:13.527Z,99.90
2023-06-12T22:40:40.413Z,99.90
2023-06-12T22:43:07.322Z,99.90
2023-06-12T22:45:36.005Z,99.90
2023-06-12T22:48:03.159Z,99.90
2023-06-12T22:50:30.045Z,99.90
2023-06-12T22:52:58.123Z,99.90
2023-06-12T22:55:25.292Z,99.90
2023-06-12T22:57:52.175Z,99.90
2023-06-12T23:00:19.382Z,99.90
2023-06-12T23:02:46.402Z,99.90
2023-06-12T23:05:16.274Z,99.90
2023-06-12T23:07:44.463Z,99.90
2023-06-12T23:10:11.739Z,99.90
2023-06-12T23:12:39.094Z,99.90
2023-06-12T23:15:06.765Z,99.90
2023-06-12T23:17:39.072Z,99.90
2023-06-12T23:20:10.584Z,99.90
2023-06-12T23:22:39.853Z,99.90
2023-06-12T23:25:07.362Z,99.90
2023-06-12T23:27:36.580Z,99.90
2023-06-12T23:30:03.758Z,99.90
2023-06-12T23:32:32.446Z,99.90
2023-06-12T23:34:59.379Z,99.90
2023-06-12T23:37:26.977Z,99.90
2023-06-12T23:39:54.837Z,99.90
2023-06-12T23:42:22.501Z,99.90
2023-06-12T23:44:49.459Z,99.90
2023-06-12T23:47:16.534Z,99.90
2023-06-12T23:49:43.376Z,99.90
2023-06-12T23:52:10.348Z,99.90
2023-06-12T23:54:37.906Z,99.90
2023-06-12T23:57:05.806Z,99.90
2023-06-12T23:59:32.706Z,99.90
